Time;durP1;ratioP1;P1;durP2;ratioP2;P2;SDS_P1;SDS_P2;PMS_P1;PMS_P2;Temp;Humidity;BMP_temperature;BMP_pressure;BME280_temperature;BME280_humidity;BME280_pressure;Samples;Min_cycle;Max_cycle;Signal;HPM_P1;HPM_P2
2023/02/02 00:01:10;;;;;;;18.55;2.95;;;7.00;99.90;;;;;;4991658;28;20092;-72
2023/02/02 00:03:37;;;;;;;23.58;2.88;;;7.10;99.90;;;;;;4992356;28;20361;-71
2023/02/02 00:06:03;;;;;;;21.52;2.28;;;7.00;99.90;;;;;;4992931;28;20026;-72
2023/02/02 00:08:29;;;;;;;29.50;3.10;;;7.00;99.90;;;;;;4992787;28;20038;-71
2023/02/02 00:10:56;;;;;;;15.25;2.67;;;7.00;99.90;;;;;;4992989;28;20157;-71
2023/02/02 00:13:21;;;;;;;24.85;2.95;;;7.00;99.90;;;;;;4992956;28;20114;-71
2023/02/02 00:15:47;;;;;;;19.33;3.10;;;7.00;99.90;;;;;;4993176;28;20458;-70
2023/02/02 00:18:13;;;;;;;12.68;2.10;;;7.00;99.90;;;;;;4991355;28;20357;-71
2023/02/02 00:20:39;;;;;;;25.90;2.15;;;7.00;99.90;;;;;;4992609;28;20073;-70
2023/02/02 00:23:04;;;;;;;16.27;2.42;;;7.00;99.90;;;;;;4992633;28;20483;-70
2023/02/02 00:25:31;;;;;;;17.38;2.20;;;7.00;99.90;;;;;;4992759;28;20026;-71
2023/02/02 00:27:56;;;;;;;19.35;2.60;;;7.00;99.90;;;;;;4992499;28;20489;-72
2023/02/02 00:30:22;;;;;;;25.65;3.58;;;7.10;99.90;;;;;;4991814;28;20110;-72
2023/02/02 00:32:50;;;;;;;79.20;6.90;;;7.10;99.90;;;;;;4991289;28;20034;-71
2023/02/02 00:35:17;;;;;;;21.52;2.25;;;7.10;99.90;;;;;;4992311;28;20031;-71
2023/02/02 00:37:42;;;;;;;16.80;3.10;;;7.10;99.90;;;;;;4992154;28;20396;-71
2023/02/02 00:40:09;;;;;;;20.00;2.83;;;7.10;99.90;;;;;;4992252;28;20054;-73
2023/02/02 00:42:34;;;;;;;21.35;3.42;;;7.00;99.90;;;;;;4992577;28;20105;-72
2023/02/02 00:45:16;;;;;;;18.40;3.03;;;7.00;99.90;;;;;;4992182;28;20569;-72
2023/02/02 00:47:47;;;;;;;24.10;2.70;;;6.90;99.90;;;;;;4991795;28;20049;-71
2023/02/02 00:50:18;;;;;;;22.48;3.05;;;6.90;99.90;;;;;;4991994;28;20034;-71
2023/02/02 00:52:44;;;;;;;17.10;2.47;;;7.00;99.90;;;;;;4992006;28;20038;-71
2023/02/02 00:55:12;;;;;;;16.65;2.47;;;7.00;99.90;;;;;;4992148;28;20041;-73
2023/02/02 00:57:38;;;;;;;19.88;2.53;;;6.90;99.90;;;;;;4992376;28;20030;-71
2023/02/02 01:00:06;;;;;;;19.98;2.83;;;7.00;99.90;;;;;;4991891;28;20034;-70
2023/02/02 01:02:33;;;;;;;;;;;6.90;99.90;;;;;;4992398;28;20037;-71
2023/02/02 01:04:58;;;;;;;28.50;3.13;;;6.90;99.90;;;;;;4991798;28;19909;-71
2023/02/02 01:07:24;;;;;;;15.50;1.98;;;6.90;99.90;;;;;;4992177;28;20117;-71
2023/02/02 01:09:50;;;;;;;12.50;2.38;;;6.80;99.90;;;;;;4991485;28;20453;-72
2023/02/02 01:12:15;;;;;;;22.50;3.40;;;6.90;99.90;;;;;;4992147;28;20036;-71
2023/02/02 01:14:41;;;;;;;27.83;3.30;;;6.90;99.90;;;;;;4991641;28;20037;-71
2023/02/02 01:17:07;;;;;;;15.77;2.20;;;6.80;99.90;;;;;;4991679;28;20033;-71
2023/02/02 01:19:33;;;;;;;20.70;2.55;;;6.90;99.90;;;;;;4991596;28;20022;-72
2023/02/02 01:21:58;;;;;;;23.70;2.30;;;6.80;99.90;;;;;;4991518;28;20480;-71
2023/02/02 01:24:24;;;;;;;17.35;3.13;;;6.90;99.90;;;;;;4992128;28;20022;-71
2023/02/02 01:26:50;;;;;;;25.17;2.63;;;6.90;99.90;;;;;;4991174;28;20140;-71
2023/02/02 01:29:15;;;;;;;21.42;2.42;;;6.90;99.90;;;;;;4991304;28;20346;-71
2023/02/02 01:31:41;;;;;;;17.70;3.38;;;7.00;99.90;;;;;;4990619;28;20121;-72
2023/02/02 01:34:07;;;;;;;19.92;2.28;;;6.90;99.90;;;;;;4991402;28;20106;-72
2023/02/02 01:36:34;;;;;;;19.75;2.47;;;6.90;99.90;;;;;;4992259;28;20504;-72
2023/02/02 01:39:00;;;;;;;22.00;2.65;;;6.90;99.90;;;;;;4990193;28;20117;-70
2023/02/02 01:41:27;;;;;;;19.13;2.88;;;6.90;99.90;;;;;;4991249;28;20177;-71
2023/02/02 01:43:58;;;;;;;25.35;3.30;;;6.80;99.90;;;;;;4991215;28;20038;-71
2023/02/02 01:46:30;;;;;;;23.95;3.78;;;6.80;99.90;;;;;;4990190;28;20050;-71
2023/02/02 01:49:16;;;;;;;25.70;3.50;;;6.80;99.90;;;;;;4991111;28;20425;-71
2023/02/02 01:51:51;;;;;;;23.48;2.33;;;6.80;99.90;;;;;;4991660;28;20052;-72
2023/02/02 01:54:28;;;;;;;22.10;2.70;;;6.80;99.90;;;;;;4991205;28;20035;-71
2023/02/02 01:57:07;;;;;;;24.33;2.63;;;6.80;99.90;;;;;;4990963;28;20026;-71
2023/02/02 01:59:34;;;;;;;14.75;2.17;;;6.80;99.90;;;;;;4991034;28;20390;-71
2023/02/02 02:02:00;;;;;;;19.25;2.83;;;6.80;99.90;;;;;;4990963;28;20038;-71
2023/02/02 02:04:28;;;;;;;21.75;2.85;;;6.90;99.90;;;;;;4991148;28;20026;-72
2023/02/02 02:06:55;;;;;;;18.40;3.05;;;6.90;99.90;;;;;;4991211;28;20045;-72
2023/02/02 02:09:20;;;;;;;38.67;3.78;;;6.90;99.90;;;;;;4991279;28;20120;-72
2023/02/02 02:11:46;;;;;;;25.90;2.80;;;6.90;99.90;;;;;;4990948;28;20082;-72
2023/02/02 02:17:16;;;;;;;31.00;3.58;;;6.90;99.90;;;;;;4991313;28;20066;-72
2023/02/02 02:26:33;;;;;;;22.20;2.90;;;6.90;99.90;;;;;;4990845;28;20045;-72
2023/02/02 02:29:23;;;;;;;20.00;3.03;;;6.90;99.90;;;;;;4969625;28;20069;-71
2023/02/02 02:32:22;;;;;;;27.70;2.80;;;6.90;99.90;;;;;;4991066;28;20551;-74
2023/02/02 02:35:21;;;;;;;23.27;3.10;;;6.90;99.90;;;;;;4990600;28;20037;-71
2023/02/02 02:38:09;;;;;;;19.60;2.55;;;6.80;99.90;;;;;;4989264;28;20058;-71
2023/02/02 02:40:52;;;;;;;14.43;2.15;;;6.80;99.90;;;;;;4990934;28;20031;-72
2023/02/02 02:43:28;;;;;;;15.68;2.53;;;6.90;99.90;;;;;;4993882;28;20031;-71
2023/02/02 02:45:54;;;;;;;24.25;2.78;;;6.80;99.90;;;;;;4994355;28;20022;-71
2023/02/02 02:48:20;;;;;;;21.40;2.55;;;6.90;99.90;;;;;;4994838;28;20045;-71
2023/02/02 02:50:45;;;;;;;23.15;2.40;;;6.80;99.90;;;;;;4994280;28;20100;-71
2023/02/02 02:53:22;;;;;;;17.30;2.20;;;6.70;99.90;;;;;;4994474;28;20372;-71
2023/02/02 02:55:56;;;;;;;16.42;2.45;;;6.80;99.90;;;;;;4994214;28;20031;-71
2023/02/02 02:58:42;;;;;;;24.33;2.45;;;6.70;99.90;;;;;;4993014;28;20038;-71
2023/02/02 03:01:08;;;;;;;25.25;2.83;;;6.70;99.90;;;;;;4993886;28;20025;-71
2023/02/02 03:03:58;;;;;;;33.47;2.75;;;6.70;99.90;;;;;;4994522;28;20030;-71
2023/02/02 03:06:46;;;;;;;16.08;2.42;;;6.60;99.90;;;;;;4992980;28;20030;-72
2023/02/02 03:09:17;;;;;;;25.85;2.90;;;6.60;99.90;;;;;;4994027;28;20049;-72
2023/02/02 03:11:43;;;;;;;17.55;2.30;;;6.60;99.90;;;;;;4993854;28;20142;-71
2023/02/02 03:14:09;;;;;;;22.13;3.10;;;6.70;99.90;;;;;;4993983;28;20188;-71
2023/02/02 03:16:36;;;;;;;13.73;2.33;;;6.70;99.90;;;;;;4993754;28;20046;-71
2023/02/02 03:19:03;;;;;;;25.98;2.65;;;6.70;99.90;;;;;;4993832;28;20033;-72
2023/02/02 03:21:29;;;;;;;22.33;2.70;;;6.60;99.90;;;;;;4994220;28;20026;-72
2023/02/02 03:23:55;;;;;;;19.70;2.78;;;6.50;99.90;;;;;;4993590;28;20034;-71
2023/02/02 03:26:21;;;;;;;17.10;2.75;;;6.50;99.90;;;;;;4993758;28;20030;-72
2023/02/02 03:28:49;;;;;;;27.63;2.80;;;6.50;99.90;;;;;;4993289;28;20133;-71
2023/02/02 03:31:15;;;;;;;26.25;3.17;;;6.50;99.90;;;;;;4993468;28;20128;-72
2023/02/02 03:33:41;;;;;;;21.73;2.78;;;6.60;99.90;;;;;;4993857;28;20030;-72
2023/02/02 03:36:07;;;;;;;36.15;3.45;;;6.60;99.90;;;;;;4993242;28;20042;-72
2023/02/02 03:38:32;;;;;;;22.63;2.67;;;6.50;99.90;;;;;;4993446;28;20069;-71
2023/02/02 03:40:58;;;;;;;23.30;3.00;;;6.50;99.90;;;;;;4992091;28;20414;-71
2023/02/02 03:43:24;;;;;;;17.27;2.08;;;6.50;99.90;;;;;;4993392;28;20037;-71
2023/02/02 03:46:03;;;;;;;21.13;3.10;;;6.60;99.90;;;;;;4993746;28;20038;-72
2023/02/02 03:48:29;;;;;;;23.15;3.28;;;6.50;99.90;;;;;;4993382;28;20047;-71
2023/02/02 03:50:55;;;;;;;19.80;2.50;;;6.40;99.90;;;;;;4992303;28;20259;-72
2023/02/02 03:53:22;;;;;;;22.58;2.53;;;6.50;99.90;;;;;;4992316;28;20093;-72
2023/02/02 03:55:48;;;;;;;21.17;2.35;;;6.60;99.90;;;;;;4993137;28;20026;-72
2023/02/02 03:58:14;;;;;;;21.17;2.92;;;6.50;99.90;;;;;;4993087;28;20026;-71
2023/02/02 04:00:39;;;;;;;26.48;2.28;;;6.50;99.90;;;;;;4993671;28;20026;-70
2023/02/02 04:03:05;;;;;;;17.20;2.53;;;6.50;99.90;;;;;;4994598;28;20032;-74
2023/02/02 04:05:31;;;;;;;25.08;2.92;;;6.50;99.90;;;;;;4997189;28;20492;-73
2023/02/02 04:07:57;;;;;;;24.50;3.50;;;6.60;99.90;;;;;;4996475;28;20114;-72
2023/02/02 04:10:22;;;;;;;26.17;2.80;;;6.60;99.90;;;;;;4994980;28;20415;-70
2023/02/02 04:12:48;;;;;;;17.58;2.70;;;6.60;99.90;;;;;;4993479;28;20087;-70
2023/02/02 04:15:14;;;;;;;24.48;2.65;;;6.50;99.90;;;;;;4992737;28;20130;-71
2023/02/02 04:17:39;;;;;;;22.90;2.97;;;6.50;99.90;;;;;;4992784;28;20034;-71
2023/02/02 04:20:06;;;;;;;21.83;2.65;;;6.50;99.90;;;;;;4992715;28;20034;-71
2023/02/02 04:22:32;;;;;;;20.10;2.35;;;6.50;99.90;;;;;;4992581;28;20041;-70
2023/02/02 04:24:58;;;;;;;26.92;3.25;;;6.50;99.90;;;;;;4993111;28;20026;-71
2023/02/02 04:27:23;;;;;;;29.17;4.00;;;6.50;99.90;;;;;;4992664;28;20170;-70
2023/02/02 04:29:49;;;;;;;25.58;2.67;;;6.70;99.90;;;;;;4992431;28;20078;-71
2023/02/02 04:32:16;;;;;;;21.15;2.53;;;6.60;99.90;;;;;;4992452;28;20031;-72
2023/02/02 04:34:42;;;;;;;27.20;3.22;;;6.50;99.90;;;;;;4992527;28;20034;-71
2023/02/02 04:37:08;;;;;;;23.92;2.88;;;6.50;99.90;;;;;;4992250;28;20019;-72
2023/02/02 04:39:34;;;;;;;22.05;2.92;;;6.50;99.90;;;;;;4992612;28;20370;-71
2023/02/02 04:41:59;;;;;;;28.35;3.53;;;6.50;99.90;;;;;;4992063;28;20031;-69
2023/02/02 04:44:25;;;;;;;22.40;2.75;;;6.50;99.90;;;;;;4992272;28;20045;-71
2023/02/02 04:46:51;;;;;;;24.77;3.22;;;6.50;99.90;;;;;;4992168;28;20039;-71
2023/02/02 04:49:17;;;;;;;15.73;2.63;;;6.50;99.90;;;;;;4991906;28;20461;-71
2023/02/02 04:51:43;;;;;;;23.23;2.33;;;6.40;99.90;;;;;;4992420;28;20065;-70
2023/02/02 04:54:09;;;;;;;25.75;3.00;;;6.40;99.90;;;;;;4991993;28;20108;-71
2023/02/02 04:56:35;;;;;;;18.15;2.80;;;6.40;99.90;;;;;;4991926;28;20112;-73
2023/02/02 04:59:00;;;;;;;20.27;2.55;;;6.40;99.90;;;;;;4992041;28;20037;-71
2023/02/02 05:01:26;;;;;;;16.70;2.35;;;6.40;99.90;;;;;;4991941;28;20042;-71
2023/02/02 05:03:52;;;;;;;25.63;2.78;;;6.40;99.90;;;;;;4991176;28;20026;-71
2023/02/02 05:06:18;;;;;;;24.92;4.18;;;6.30;99.90;;;;;;4991690;28;20073;-71
2023/02/02 05:08:45;;;;;;;20.00;2.63;;;6.30;99.90;;;;;;4991496;28;20030;-72
2023/02/02 05:11:13;;;;;;;22.80;4.00;;;6.30;99.90;;;;;;4991540;28;20344;-71
2023/02/02 05:13:39;;;;;;;23.13;2.50;;;6.40;99.90;;;;;;4991576;28;20481;-71
2023/02/02 05:16:06;;;;;;;42.40;3.13;;;6.40;99.90;;;;;;4991455;28;20073;-70
2023/02/02 05:18:32;;;;;;;23.05;2.80;;;6.40;99.90;;;;;;4992019;28;20453;-71
2023/02/02 05:21:02;;;;;;;25.92;3.53;;;6.40;99.90;;;;;;4991392;28;20137;-71
2023/02/02 05:23:28;;;;;;;27.60;3.45;;;6.40;99.90;;;;;;4991388;28;20104;-72
2023/02/02 05:25:54;;;;;;;16.50;2.72;;;6.40;99.90;;;;;;4991366;28;20426;-71
2023/02/02 05:28:21;;;;;;;25.40;3.00;;;6.40;99.90;;;;;;4991380;28;20057;-71
2023/02/02 05:30:47;;;;;;;21.75;4.03;;;6.30;99.90;;;;;;4990555;28;20097;-70
2023/02/02 05:33:13;;;;;;;31.17;3.70;;;6.40;99.90;;;;;;4991268;28;20480;-70
2023/02/02 05:35:39;;;;;;;33.65;3.17;;;6.40;99.90;;;;;;4991167;28;20041;-71
2023/02/02 05:38:04;;;;;;;21.67;2.97;;;6.50;99.90;;;;;;4991379;28;20026;-70
2023/02/02 05:40:30;;;;;;;25.83;3.08;;;6.40;99.90;;;;;;4991414;28;20550;-71
2023/02/02 05:42:55;;;;;;;27.10;3.22;;;6.40;99.90;;;;;;4991066;28;20026;-71
2023/02/02 05:45:22;;;;;;;22.02;2.90;;;6.20;99.90;;;;;;4991571;28;20337;-71
2023/02/02 05:47:48;;;;;;;22.83;2.75;;;6.30;99.90;;;;;;4989892;28;20034;-70
2023/02/02 05:50:14;;;;;;;25.20;2.83;;;6.50;99.90;;;;;;4991097;28;20038;-71
2023/02/02 05:52:42;;;;;;;27.73;3.05;;;6.50;99.90;;;;;;4991225;28;20416;-71
2023/02/02 05:55:09;;;;;;;24.67;3.05;;;6.50;99.90;;;;;;4990966;28;20112;-70
2023/02/02 05:57:35;;;;;;;29.80;3.20;;;6.40;99.90;;;;;;4990481;28;20037;-71
2023/02/02 06:00:00;;;;;;;29.92;3.00;;;6.50;99.90;;;;;;4989679;28;20602;-71
2023/02/02 06:02:26;;;;;;;24.48;2.83;;;6.60;99.90;;;;;;4991013;28;20039;-71
2023/02/02 06:04:52;;;;;;;25.73;3.05;;;6.70;99.90;;;;;;4990982;28;20034;-70
2023/02/02 06:07:17;;;;;;;25.85;4.07;;;6.80;99.90;;;;;;4990612;28;20031;-71
2023/02/02 06:09:43;;;;;;;25.63;3.28;;;6.80;99.90;;;;;;4991217;28;20421;-70
2023/02/02 06:12:09;;;;;;;29.92;3.00;;;6.70;99.90;;;;;;4991205;28;20034;-72
2023/02/02 06:14:34;;;;;;;23.83;2.92;;;6.70;99.90;;;;;;4990796;28;20485;-71
2023/02/02 06:17:00;;;;;;;31.27;3.38;;;6.60;99.90;;;;;;4991085;28;20107;-70
2023/02/02 06:19:26;;;;;;;16.60;2.63;;;6.60;99.90;;;;;;4994816;28;20110;-71
2023/02/02 06:21:52;;;;;;;28.25;3.55;;;6.70;99.90;;;;;;4995072;28;20030;-72
2023/02/02 06:24:17;;;;;;;19.33;2.75;;;6.70;99.90;;;;;;5013362;28;20437;-71
2023/02/02 06:26:43;;;;;;;28.42;3.70;;;6.70;99.90;;;;;;5014275;28;20041;-71
2023/02/02 06:29:12;;;;;;;26.13;2.80;;;6.80;99.90;;;;;;5014163;28;20133;-71
2023/02/02 06:31:38;;;;;;;23.40;3.45;;;6.80;99.90;;;;;;5013596;28;20045;-71
2023/02/02 06:34:04;;;;;;;15.95;2.38;;;6.90;99.90;;;;;;5014496;28;20021;-71
2023/02/02 06:36:30;;;;;;;20.63;2.83;;;7.00;99.90;;;;;;5013834;28;20367;-72
2023/02/02 06:38:56;;;;;;;32.67;3.38;;;7.00;99.90;;;;;;5013171;28;20280;-72
2023/02/02 06:41:23;;;;;;;19.58;2.33;;;7.10;99.90;;;;;;5014188;28;20104;-73
2023/02/02 06:43:49;;;;;;;32.65;3.72;;;7.20;99.90;;;;;;5008552;28;20037;-72
2023/02/02 06:46:16;;;;;;;26.08;3.15;;;7.10;99.90;;;;;;4994886;28;20030;-74
2023/02/02 06:48:42;;;;;;;27.13;2.42;;;7.10;99.90;;;;;;4995048;28;20066;-71
2023/02/02 06:51:07;;;;;;;28.25;3.15;;;7.10;99.90;;;;;;4994502;28;20061;-71
2023/02/02 06:53:34;;;;;;;29.35;3.95;;;7.10;99.90;;;;;;4994403;28;20100;-71
2023/02/02 06:56:02;;;;;;;22.85;2.88;;;7.20;99.90;;;;;;4994134;28;20336;-73
2023/02/02 06:58:30;;;;;;;28.88;3.88;;;7.20;99.90;;;;;;4993927;28;20455;-72
2023/02/02 07:01:04;;;;;;;19.23;2.78;;;7.10;99.90;;;;;;4992759;28;20041;-73
2023/02/02 07:03:30;;;;;;;23.95;3.67;;;7.10;99.90;;;;;;4994613;28;20030;-73
2023/02/02 07:05:56;;;;;;;20.17;3.13;;;7.30;99.90;;;;;;4994366;28;20041;-72
2023/02/02 07:08:22;;;;;;;18.95;3.10;;;7.20;99.90;;;;;;4994216;28;20026;-73
2023/02/02 07:10:47;;;;;;;30.67;3.35;;;7.30;99.90;;;;;;4994002;28;20053;-74
2023/02/02 07:13:13;;;;;;;20.73;3.20;;;7.40;99.90;;;;;;4993089;28;20480;-72
2023/02/02 07:15:39;;;;;;;24.45;3.60;;;7.30;99.90;;;;;;4994384;28;20022;-71
2023/02/02 07:18:05;;;;;;;21.27;3.17;;;7.30;99.90;;;;;;4992597;28;20170;-70
2023/02/02 07:20:31;;;;;;;29.95;3.17;;;7.40;99.90;;;;;;4994009;28;20053;-72
2023/02/02 07:22:56;;;;;;;21.92;3.38;;;7.50;99.90;;;;;;4993807;28;20030;-71
2023/02/02 07:25:23;;;;;;;20.23;2.75;;;7.60;99.90;;;;;;4992787;28;20034;-72
2023/02/02 07:27:54;;;;;;;22.85;3.05;;;7.60;99.90;;;;;;4992859;28;20038;-71
2023/02/02 07:30:20;;;;;;;23.30;2.97;;;7.60;99.90;;;;;;4993568;28;20043;-78
2023/02/02 07:32:49;;;;;;;28.95;3.25;;;7.60;99.90;;;;;;4993984;28;20026;-73
2023/02/02 07:35:16;;;;;;;28.05;2.83;;;7.50;99.90;;;;;;4994082;28;20488;-75
2023/02/02 07:37:42;;;;;;;24.58;3.20;;;7.60;99.90;;;;;;4992734;28;20034;-74
2023/02/02 07:40:08;;;;;;;28.90;2.83;;;7.60;99.90;;;;;;4993596;28;20022;-74
2023/02/02 07:42:34;;;;;;;22.50;3.03;;;7.60;99.90;;;;;;4994419;28;20465;-73
2023/02/02 07:45:00;;;;;;;20.50;2.97;;;7.60;99.90;;;;;;4994024;28;20120;-75
2023/02/02 07:47:26;;;;;;;25.50;3.10;;;7.70;99.90;;;;;;4993876;28;20085;-73
2023/02/02 07:49:51;;;;;;;28.73;3.97;;;7.60;99.90;;;;;;4993890;28;20101;-73
2023/02/02 07:52:17;;;;;;;19.40;2.88;;;7.50;99.90;;;;;;4992388;28;20458;-73
2023/02/02 07:54:43;;;;;;;24.80;3.33;;;7.50;99.90;;;;;;4994148;28;20031;-74
2023/02/02 07:57:09;;;;;;;21.75;3.72;;;7.60;99.90;;;;;;4993541;28;20033;-74
2023/02/02 07:59:35;;;;;;;25.92;3.58;;;7.50;99.90;;;;;;4993334;28;20046;-74
2023/02/02 08:02:01;;;;;;;25.40;3.47;;;7.80;99.90;;;;;;4992238;28;20050;-73
2023/02/02 08:04:26;;;;;;;29.70;4.05;;;7.60;99.90;;;;;;4993602;28;20030;-75
2023/02/02 08:06:52;;;;;;;24.98;3.65;;;7.60;99.90;;;;;;4993683;28;20031;-74
2023/02/02 08:09:18;;;;;;;28.65;3.30;;;7.60;99.90;;;;;;4993192;28;20480;-77
2023/02/02 08:11:44;;;;;;;24.65;3.13;;;7.80;99.90;;;;;;4993263;28;20122;-73
2023/02/02 08:14:11;;;;;;;22.55;3.15;;;7.70;99.90;;;;;;4993108;28;20042;-74
2023/02/02 08:16:37;;;;;;;22.67;2.75;;;7.60;99.90;;;;;;4993190;28;20037;-73
2023/02/02 08:19:02;;;;;;;22.95;3.50;;;7.70;99.90;;;;;;4993044;28;20109;-74
2023/02/02 08:21:32;;;;;;;17.40;2.75;;;7.70;99.90;;;;;;4993787;28;20031;-74
2023/02/02 08:23:58;;;;;;;14.27;2.35;;;7.70;99.90;;;;;;4992875;28;20489;-74
2023/02/02 08:26:26;;;;;;;19.33;3.72;;;7.70;99.90;;;;;;4991986;28;20034;-74
2023/02/02 08:28:58;;;;;;;31.35;4.72;;;7.80;99.90;;;;;;4992823;28;20285;-74
2023/02/02 08:31:33;;;;;;;16.58;3.55;;;7.80;99.90;;;;;;4992853;28;20038;-74
2023/02/02 08:33:59;;;;;;;15.65;3.75;;;7.60;99.90;;;;;;4991684;28;20041;-74
2023/02/02 08:36:27;;;;;;;20.83;2.92;;;7.70;99.90;;;;;;4993245;28;20054;-77
2023/02/02 08:38:53;;;;;;;20.73;3.53;;;7.80;99.90;;;;;;4992790;28;20027;-73
2023/02/02 08:41:21;;;;;;;29.88;3.40;;;8.00;99.90;;;;;;4992398;28;20104;-74
2023/02/02 08:43:48;;;;;;;20.02;2.70;;;8.00;99.90;;;;;;4992893;28;20034;-78
2023/02/02 08:46:15;;;;;;;16.35;3.28;;;8.20;99.90;;;;;;4992783;28;20406;-73
2023/02/02 08:48:41;;;;;;;23.80;2.70;;;8.20;99.90;;;;;;4992932;28;20096;-74
2023/02/02 08:51:09;;;;;;;22.73;3.95;;;8.30;99.90;;;;;;4992208;28;20114;-75
2023/02/02 08:53:34;;;;;;;;;;;8.30;99.90;;;;;;4993045;28;20027;-75
2023/02/02 08:56:12;;;;;;;16.10;2.58;;;8.40;99.90;;;;;;4991471;28;20358;-73
2023/02/02 08:58:38;;;;;;;12.25;2.85;;;8.50;99.90;;;;;;4992604;28;20104;-73
2023/02/02 09:01:07;;;;;;;21.90;3.67;;;8.50;99.90;;;;;;4991312;28;20105;-73
2023/02/02 09:03:33;;;;;;;20.75;2.75;;;8.50;99.90;;;;;;4992573;28;20153;-74
2023/02/02 09:06:04;;;;;;;19.52;2.53;;;8.60;99.90;;;;;;4991260;28;20102;-73
2023/02/02 09:08:30;;;;;;;22.42;3.22;;;8.60;99.90;;;;;;4991719;28;20035;-73
2023/02/02 09:10:55;;;;;;;18.58;2.90;;;8.60;99.90;;;;;;4991874;28;20460;-73
2023/02/02 09:13:21;;;;;;;16.13;3.13;;;8.60;99.90;;;;;;4991977;28;20457;-75
2023/02/02 09:15:47;;;;;;;12.38;2.20;;;8.70;99.90;;;;;;4991074;28;20038;-75
2023/02/02 09:18:12;;;;;;;12.38;2.22;;;8.70;99.90;;;;;;4992003;28;20038;-76
2023/02/02 09:20:40;;;;;;;14.82;3.10;;;8.80;99.90;;;;;;4990681;28;20034;-75
2023/02/02 09:23:06;;;;;;;19.20;2.25;;;8.80;99.90;;;;;;4991486;28;20034;-76
2023/02/02 09:25:31;;;;;;;16.60;2.38;;;8.80;99.90;;;;;;4991698;28;20360;-76
2023/02/02 09:27:57;;;;;;;16.95;2.05;;;8.60;99.90;;;;;;4991341;28;20042;-74
2023/02/02 09:30:23;;;;;;;15.57;2.17;;;8.80;99.90;;;;;;4991886;28;20030;-75
2023/02/02 09:32:51;;;;;;;16.88;2.45;;;9.10;99.90;;;;;;4974717;28;20440;-78
2023/02/02 09:35:17;;;;;;;12.75;3.17;;;9.00;99.90;;;;;;4990341;28;20022;-74
2023/02/02 09:37:44;;;;;;;14.27;2.03;;;9.00;99.90;;;;;;4991216;28;20061;-73
2023/02/02 09:40:16;;;;;;;11.80;2.75;;;9.00;99.90;;;;;;4990172;28;20030;-74
2023/02/02 09:42:45;;;;;;;9.13;1.77;;;8.90;99.90;;;;;;4990580;28;20088;-74
2023/02/02 09:45:17;;;;;;;15.82;1.95;;;9.00;99.90;;;;;;4991348;28;20121;-77
2023/02/02 09:48:23;;;;;;;13.32;2.03;;;9.00;99.90;;;;;;4991185;28;20053;-75
2023/02/02 09:50:53;;;;;;;14.93;1.92;;;9.20;99.90;;;;;;4989284;28;20037;-78
2023/02/02 09:53:39;;;;;;;20.40;2.03;;;9.10;99.90;;;;;;4991188;28;20031;-76
2023/02/02 09:56:10;;;;;;;14.02;1.98;;;9.00;99.90;;;;;;4991258;28;20030;-78
2023/02/02 09:58:52;;;;;;;14.20;2.30;;;9.10;99.90;;;;;;4991020;28;20030;-75
2023/02/02 10:01:23;;;;;;;15.48;2.67;;;9.20;99.90;;;;;;4990991;28;20026;-76
2023/02/02 10:03:56;;;;;;;8.80;1.80;;;9.00;99.90;;;;;;4991491;28;20049;-73
2023/02/02 10:06:41;;;;;;;13.43;2.10;;;9.00;99.90;;;;;;4991261;28;20137;-74
2023/02/02 10:09:15;;;;;;;16.38;1.85;;;9.20;99.90;;;;;;4990876;28;20034;-74
2023/02/02 10:12:03;;;;;;;15.32;2.05;;;9.00;99.90;;;;;;4991284;28;20042;-75
2023/02/02 10:15:11;;;;;;;17.45;2.40;;;9.10;99.90;;;;;;4989886;28;20022;-74
2023/02/02 10:18:01;;;;;;;10.73;1.63;;;9.30;99.90;;;;;;4991121;28;20058;-75
2023/02/02 10:20:44;;;;;;;10.68;1.88;;;9.20;99.80;;;;;;4990263;28;20129;-75
2023/02/02 10:23:27;;;;;;;13.02;2.03;;;9.40;99.90;;;;;;4989779;28;20122;-74
2023/02/02 10:26:21;;;;;;;17.98;2.25;;;9.50;99.90;;;;;;4991162;28;20041;-72
2023/02/02 10:29:04;;;;;;;15.30;1.45;;;9.50;99.70;;;;;;4988841;28;20121;-75
2023/02/02 10:31:33;;;;;;;9.93;1.98;;;9.30;99.60;;;;;;4991049;28;20327;-75
2023/02/02 10:34:46;;;;;;;16.35;2.22;;;9.40;99.70;;;;;;4990766;28;20088;-74
2023/02/02 10:37:50;;;;;;;17.42;3.47;;;9.60;99.70;;;;;;4990167;28;20043;-74
2023/02/02 10:40:34;;;;;;;17.20;1.83;;;9.70;99.10;;;;;;4991078;28;20030;-74
2023/02/02 10:45:51;;;;;;;16.08;1.85;;;9.50;99.00;;;;;;4991197;28;20498;-75
2023/02/02 10:48:27;;;;;;;27.67;3.10;;;9.50;99.20;;;;;;4990760;28;20396;-75
2023/02/02 10:50:57;;;;;;;7.70;1.70;;;9.50;99.40;;;;;;4990932;28;20035;-77
2023/02/02 10:53:27;;;;;;;15.32;2.67;;;9.20;99.50;;;;;;4990758;28;20030;-76
2023/02/02 10:56:00;;;;;;;14.63;2.42;;;9.60;99.50;;;;;;4990795;28;20038;-75
2023/02/02 10:58:31;;;;;;;9.13;2.13;;;9.70;99.00;;;;;;4990565;28;20042;-73
2023/02/02 11:01:00;;;;;;;13.82;2.30;;;9.90;99.00;;;;;;4990571;28;20026;-73
2023/02/02 11:03:28;;;;;;;10.88;1.75;;;10.10;98.50;;;;;;4992779;28;20044;-74
2023/02/02 11:08:44;;;;;;;17.10;2.47;;;10.40;98.10;;;;;;4994089;28;20587;-75
2023/02/02 11:11:33;;;;;;;18.92;2.50;;;10.20;97.80;;;;;;4992734;28;20035;-75
2023/02/02 11:14:10;;;;;;;24.83;2.50;;;10.10;98.00;;;;;;4993929;28;20133;-74
2023/02/02 11:16:40;;;;;;;16.38;2.47;;;10.20;97.90;;;;;;4994128;28;20066;-74
2023/02/02 11:19:18;;;;;;;18.10;2.83;;;10.20;98.10;;;;;;4993970;28;20026;-73
2023/02/02 11:21:47;;;;;;;20.10;3.20;;;10.10;98.00;;;;;;4994093;28;20030;-74
2023/02/02 11:24:29;;;;;;;17.17;2.35;;;9.90;98.60;;;;;;4993899;28;20096;-74
2023/02/02 11:27:03;;;;;;;24.08;4.40;;;9.90;98.90;;;;;;4993484;28;20125;-73
2023/02/02 11:29:40;;;;;;;10.70;2.38;;;9.60;98.60;;;;;;4993732;28;20060;-75
2023/02/02 11:32:26;;;;;;;24.88;3.08;;;9.50;99.00;;;;;;4993595;28;20138;-74
2023/02/02 11:35:01;;;;;;;13.95;3.05;;;9.80;99.30;;;;;;4993691;28;20177;-73
2023/02/02 11:37:27;;;;;;;17.23;3.50;;;10.00;98.50;;;;;;4992385;28;20038;-72
2023/02/02 11:39:53;;;;;;;16.95;2.58;;;9.80;98.70;;;;;;4992201;28;20037;-70
2023/02/02 11:42:23;;;;;;;18.35;2.50;;;10.10;98.40;;;;;;4993756;28;20026;-71
2023/02/02 11:44:50;;;;;;;12.35;1.95;;;10.10;98.00;;;;;;4993294;28;20173;-74
2023/02/02 11:47:32;;;;;;;16.45;2.38;;;10.00;98.20;;;;;;4993197;28;20045;-72
2023/02/02 11:50:01;;;;;;;18.52;3.03;;;9.90;98.50;;;;;;4993370;28;20038;-73
2023/02/02 11:52:29;;;;;;;23.88;4.13;;;9.90;98.80;;;;;;4993071;28;20033;-71
2023/02/02 11:54:56;;;;;;;;;;;9.90;98.80;;;;;;4993453;28;20022;-71
2023/02/02 11:57:24;;;;;;;17.88;2.17;;;9.90;98.80;;;;;;4993763;28;19999;-71
2023/02/02 12:00:04;;;;;;;;;;;9.90;99.20;;;;;;4993224;28;20261;-72
2023/02/02 12:02:31;;;;;;;13.43;2.08;;;10.10;98.50;;;;;;4992940;28;19910;-71
2023/02/02 12:05:25;;;;;;;15.02;2.28;;;10.10;98.20;;;;;;4993115;28;20034;-71
2023/02/02 12:07:51;;;;;;;13.00;1.60;;;10.00;98.30;;;;;;4992848;28;20084;-72
2023/02/02 12:10:34;;;;;;;16.88;2.95;;;10.00;98.60;;;;;;4992885;28;20484;-71
2023/02/02 12:13:06;;;;;;;19.08;2.47;;;10.30;98.50;;;;;;4991706;28;20023;-72
2023/02/02 12:16:04;;;;;;;20.23;2.92;;;10.40;98.50;;;;;;4992725;28;20018;-71
2023/02/02 12:18:39;;;;;;;12.93;2.25;;;10.40;97.60;;;;;;4991731;28;20386;-72
2023/02/02 12:21:05;;;;;;;10.27;2.17;;;10.40;97.80;;;;;;4992965;28;20034;-73
2023/02/02 12:23:57;;;;;;;11.60;2.50;;;10.40;97.90;;;;;;4992966;28;20524;-73
2023/02/02 12:26:36;;;;;;;11.32;1.88;;;10.40;97.80;;;;;;4991396;28;20026;-73
2023/02/02 12:29:26;;;;;;;11.82;2.45;;;10.40;97.60;;;;;;4992474;28;20491;-73
2023/02/02 12:32:19;;;;;;;19.15;3.30;;;10.30;97.80;;;;;;4992602;28;20097;-72
2023/02/02 12:35:20;;;;;;;25.80;2.70;;;10.20;97.60;;;;;;4992476;28;20061;-72
2023/02/02 12:38:15;;;;;;;15.13;2.80;;;10.30;97.60;;;;;;4992523;28;20093;-73
2023/02/02 12:40:58;;;;;;;13.10;2.28;;;10.20;98.20;;;;;;4992040;28;20053;-74
2023/02/02 12:43:40;;;;;;;18.55;2.20;;;9.90;98.50;;;;;;4992553;28;20026;-73
2023/02/02 12:46:11;;;;;;;21.00;2.70;;;9.90;98.50;;;;;;4992292;28;20034;-73
2023/02/02 12:48:48;;;;;;;16.90;3.10;;;10.00;98.00;;;;;;4992653;28;20026;-73
2023/02/02 12:51:34;;;;;;;12.60;2.38;;;10.00;98.40;;;;;;4992243;28;20357;-73
2023/02/02 12:54:11;;;;;;;20.65;3.63;;;10.00;98.30;;;;;;4991131;28;20033;-73
2023/02/02 12:56:50;;;;;;;15.70;2.95;;;9.90;98.70;;;;;;4992186;28;20031;-74
2023/02/02 12:59:32;;;;;;;16.48;2.65;;;10.00;98.20;;;;;;4992294;28;20393;-73
2023/02/02 13:02:25;;;;;;;20.92;2.60;;;9.80;98.60;;;;;;4992019;28;20030;-73
2023/02/02 13:05:12;;;;;;;17.65;2.58;;;9.60;98.90;;;;;;4992037;28;20034;-72
2023/02/02 13:07:57;;;;;;;22.02;3.72;;;9.50;99.40;;;;;;4991771;28;20329;-74
2023/02/02 13:10:39;;;;;;;19.65;3.13;;;9.90;99.30;;;;;;4991961;28;20026;-74
2023/02/02 13:13:17;;;;;;;22.13;2.90;;;9.80;98.70;;;;;;4991909;28;20022;-73
2023/02/02 13:15:48;;;;;;;14.32;2.63;;;9.80;98.70;;;;;;4975725;28;20038;-71
2023/02/02 13:18:22;;;;;;;22.92;2.63;;;9.70;98.80;;;;;;4991879;28;20034;-72
2023/02/02 13:20:58;;;;;;;33.05;3.40;;;9.80;98.80;;;;;;4991495;28;20035;-71